sensor_id;sensor_type;location;lat;lon;timestamp;P1;durP1;ratioP1;P2;durP2;ratioP2
59728;SDS011;45588;51.598;5.618;2022-08-02T00:02:09;9.30;;;6.97;;
59728;SDS011;45588;51.598;5.618;2022-08-02T00:04:34;6.40;;;4.95;;
59728;SDS011;45588;51.598;5.618;2022-08-02T00:07:00;10.23;;;6.22;;
59728;SDS011;45588;51.598;5.618;2022-08-02T00:09:25;22.83;;;6.95;;
59728;SDS011;45588;51.598;5.618;2022-08-02T00:11:50;13.00;;;5.53;;
59728;SDS011;45588;51.598;5.618;2022-08-02T00:14:16;9.38;;;6.13;;
59728;SDS011;45588;51.598;5.618;2022-08-02T00:16:41;12.20;;;6.22;;
59728;SDS011;45588;51.598;5.618;2022-08-02T00:19:07;7.97;;;4.85;;
59728;SDS011;45588;51.598;5.618;2022-08-02T00:21:32;9.40;;;6.00;;
59728;SDS011;45588;51.598;5.618;2022-08-02T00:23:57;16.30;;;6.80;;
59728;SDS011;45588;51.598;5.618;2022-08-02T00:26:23;12.27;;;6.28;;
59728;SDS011;45588;51.598;5.618;2022-08-02T00:28:48;10.95;;;6.22;;
59728;SDS011;45588;51.598;5.618;2022-08-02T00:31:13;5.97;;;5.28;;
59728;SDS011;45588;51.598;5.618;2022-08-02T00:33:39;10.73;;;4.20;;
59728;SDS011;45588;51.598;5.618;2022-08-02T00:36:04;7.20;;;4.72;;
59728;SDS011;45588;51.598;5.618;2022-08-02T00:38:29;12.00;;;6.10;;
59728;SDS011;45588;51.598;5.618;2022-08-02T00:40:55;9.32;;;5.80;;
59728;SDS011;45588;51.598;5.618;2022-08-02T00:43:20;7.55;;;5.95;;
59728;SDS011;45588;51.598;5.618;2022-08-02T00:45:45;9.65;;;4.78;;
59728;SDS011;45588;51.598;5.618;2022-08-02T00:48:11;9.05;;;5.68;;
59728;SDS011;45588;51.598;5.618;2022-08-02T00:50:37;8.15;;;5.43;;
59728;SDS011;45588;51.598;5.618;2022-08-02T00:53:04;10.68;;;5.22;;
59728;SDS011;45588;51.598;5.618;2022-08-02T00:55:30;10.15;;;6.28;;
59728;SDS011;45588;51.598;5.618;2022-08-02T00:57:55;9.70;;;7.00;;
59728;SDS011;45588;51.598;5.618;2022-08-02T01:00:21;8.65;;;6.50;;
59728;SDS011;45588;51.598;5.618;2022-08-02T01:02:47;15.15;;;7.68;;
59728;SDS011;45588;51.598;5.618;2022-08-02T01:05:12;8.18;;;5.22;;
59728;SDS011;45588;51.598;5.618;2022-08-02T01:07:38;7.85;;;6.38;;
59728;SDS011;45588;51.598;5.618;2022-08-02T01:10:04;7.65;;;5.47;;
59728;SDS011;45588;51.598;5.618;2022-08-02T01:12:30;10.18;;;5.30;;
59728;SDS011;45588;51.598;5.618;2022-08-02T01:14:56;3.97;;;3.55;;
59728;SDS011;45588;51.598;5.618;2022-08-02T01:22:45;8.00;;;4.18;;
59728;SDS011;45588;51.598;5.618;2022-08-02T01:28:25;6.95;;;4.80;;
59728;SDS011;45588;51.598;5.618;2022-08-02T01:30:55;11.13;;;5.47;;
59728;SDS011;45588;51.598;5.618;2022-08-02T01:33:25;12.30;;;4.60;;
59728;SDS011;45588;51.598;5.618;2022-08-02T01:35:55;14.10;;;4.53;;
59728;SDS011;45588;51.598;5.618;2022-08-02T01:38:26;7.03;;;3.88;;
59728;SDS011;45588;51.598;5.618;2022-08-02T01:40:57;11.10;;;5.93;;
59728;SDS011;45588;51.598;5.618;2022-08-02T01:43:23;10.50;;;5.82;;
59728;SDS011;45588;51.598;5.618;2022-08-02T01:45:52;12.70;;;5.35;;
59728;SDS011;45588;51.598;5.618;2022-08-02T01:48:20;7.55;;;4.10;;
59728;SDS011;45588;51.598;5.618;2022-08-02T01:50:47;8.90;;;3.67;;
59728;SDS011;45588;51.598;5.618;2022-08-02T01:53:13;12.65;;;5.50;;
59728;SDS011;45588;51.598;5.618;2022-08-02T01:55:46;12.57;;;4.57;;
59728;SDS011;45588;51.598;5.618;2022-08-02T01:58:15;12.98;;;6.35;;
59728;SDS011;45588;51.598;5.618;2022-08-02T02:00:42;5.28;;;4.10;;
59728;SDS011;45588;51.598;5.618;2022-08-02T02:03:10;8.80;;;6.20;;
59728;SDS011;45588;51.598;5.618;2022-08-02T02:05:38;8.32;;;4.13;;
59728;SDS011;45588;51.598;5.618;2022-08-02T02:08:05;9.80;;;4.10;;
59728;SDS011;45588;51.598;5.618;2022-08-02T02:10:32;14.05;;;5.80;;
59728;SDS011;45588;51.598;5.618;2022-08-02T02:13:03;11.70;;;4.70;;
59728;SDS011;45588;51.598;5.618;2022-08-02T02:15:31;11.38;;;5.55;;
59728;SDS011;45588;51.598;5.618;2022-08-02T02:17:59;9.80;;;4.18;;
59728;SDS011;45588;51.598;5.618;2022-08-02T02:20:26;7.20;;;5.03;;
59728;SDS011;45588;51.598;5.618;2022-08-02T02:22:52;7.40;;;4.18;;
59728;SDS011;45588;51.598;5.618;2022-08-02T02:25:18;9.90;;;5.63;;
59728;SDS011;45588;51.598;5.618;2022-08-02T02:27:47;11.88;;;5.82;;
59728;SDS011;45588;51.598;5.618;2022-08-02T02:30:19;9.32;;;3.63;;
59728;SDS011;45588;51.598;5.618;2022-08-02T02:32:47;11.40;;;5.13;;
59728;SDS011;45588;51.598;5.618;2022-08-02T02:35:16;8.65;;;5.25;;
59728;SDS011;45588;51.598;5.618;2022-08-02T02:37:43;7.68;;;4.53;;
59728;SDS011;45588;51.598;5.618;2022-08-02T02:40:12;8.93;;;3.25;;
59728;SDS011;45588;51.598;5.618;2022-08-02T02:42:40;10.18;;;4.45;;
59728;SDS011;45588;51.598;5.618;2022-08-02T02:45:07;11.73;;;5.15;;
59728;SDS011;45588;51.598;5.618;2022-08-02T02:47:34;13.35;;;5.05;;
59728;SDS011;45588;51.598;5.618;2022-08-02T02:50:01;10.73;;;5.30;;
59728;SDS011;45588;51.598;5.618;2022-08-02T02:52:27;9.43;;;3.65;;
59728;SDS011;45588;51.598;5.618;2022-08-02T02:54:52;13.77;;;4.07;;
59728;SDS011;45588;51.598;5.618;2022-08-02T02:57:19;9.68;;;5.03;;
59728;SDS011;45588;51.598;5.618;2022-08-02T02:59:45;8.45;;;5.10;;
59728;SDS011;45588;51.598;5.618;2022-08-02T03:02:11;9.23;;;4.35;;
59728;SDS011;45588;51.598;5.618;2022-08-02T03:04:38;10.73;;;5.13;;
59728;SDS011;45588;51.598;5.618;2022-08-02T03:07:06;9.15;;;3.80;;
59728;SDS011;45588;51.598;5.618;2022-08-02T03:09:31;11.02;;;4.68;;
59728;SDS011;45588;51.598;5.618;2022-08-02T03:11:56;6.72;;;4.22;;
59728;SDS011;45588;51.598;5.618;2022-08-02T03:14:22;6.13;;;3.70;;
59728;SDS011;45588;51.598;5.618;2022-08-02T03:16:48;13.20;;;5.30;;
59728;SDS011;45588;51.598;5.618;2022-08-02T03:19:15;13.50;;;5.63;;
59728;SDS011;45588;51.598;5.618;2022-08-02T03:21:41;10.77;;;4.70;;
59728;SDS011;45588;51.598;5.618;2022-08-02T03:24:07;13.95;;;5.47;;
59728;SDS011;45588;51.598;5.618;2022-08-02T03:26:33;9.43;;;5.35;;
59728;SDS011;45588;51.598;5.618;2022-08-02T03:28:59;8.05;;;4.65;;
59728;SDS011;45588;51.598;5.618;2022-08-02T03:31:24;7.55;;;3.95;;
59728;SDS011;45588;51.598;5.618;2022-08-02T03:33:50;15.18;;;4.35;;
59728;SDS011;45588;51.598;5.618;2022-08-02T03:36:16;10.32;;;3.67;;
59728;SDS011;45588;51.598;5.618;2022-08-02T03:38:45;8.63;;;5.30;;
59728;SDS011;45588;51.598;5.618;2022-08-02T03:41:12;10.20;;;3.90;;
59728;SDS011;45588;51.598;5.618;2022-08-02T03:43:41;8.60;;;5.38;;
59728;SDS011;45588;51.598;5.618;2022-08-02T03:46:08;6.35;;;3.50;;
59728;SDS011;45588;51.598;5.618;2022-08-02T03:48:36;9.13;;;5.40;;
59728;SDS011;45588;51.598;5.618;2022-08-02T03:51:02;11.07;;;6.47;;
59728;SDS011;45588;51.598;5.618;2022-08-02T03:53:29;10.45;;;5.63;;
59728;SDS011;45588;51.598;5.618;2022-08-02T03:55:55;6.07;;;4.85;;
59728;SDS011;45588;51.598;5.618;2022-08-02T03:58:21;6.80;;;4.45;;
59728;SDS011;45588;51.598;5.618;2022-08-02T04:00:48;11.48;;;6.85;;
59728;SDS011;45588;51.598;5.618;2022-08-02T04:03:14;9.15;;;6.07;;
59728;SDS011;45588;51.598;5.618;2022-08-02T04:05:40;11.80;;;6.05;;
59728;SDS011;45588;51.598;5.618;2022-08-02T04:08:05;10.85;;;5.07;;
59728;SDS011;45588;51.598;5.618;2022-08-02T04:10:31;10.80;;;6.40;;
59728;SDS011;45588;51.598;5.618;2022-08-02T04:13:16;11.85;;;6.75;;
59728;SDS011;45588;51.598;5.618;2022-08-02T04:15:41;12.48;;;5.32;;
59728;SDS011;45588;51.598;5.618;2022-08-02T04:18:07;8.77;;;5.60;;
59728;SDS011;45588;51.598;5.618;2022-08-02T04:20:32;13.25;;;4.68;;
59728;SDS011;45588;51.598;5.618;2022-08-02T04:23:06;10.88;;;6.60;;
59728;SDS011;45588;51.598;5.618;2022-08-02T04:25:34;11.18;;;4.68;;
59728;SDS011;45588;51.598;5.618;2022-08-02T04:28:00;15.68;;;5.30;;
59728;SDS011;45588;51.598;5.618;2022-08-02T04:30:26;10.73;;;5.25;;
59728;SDS011;45588;51.598;5.618;2022-08-02T04:32:53;13.00;;;5.40;;
59728;SDS011;45588;51.598;5.618;2022-08-02T04:35:18;13.20;;;6.30;;
59728;SDS011;45588;51.598;5.618;2022-08-02T04:37:44;12.63;;;6.28;;
59728;SDS011;45588;51.598;5.618;2022-08-02T04:40:12;9.23;;;6.55;;
59728;SDS011;45588;51.598;5.618;2022-08-02T04:42:38;9.40;;;6.15;;
59728;SDS011;45588;51.598;5.618;2022-08-02T04:45:04;11.40;;;7.13;;
59728;SDS011;45588;51.598;5.618;2022-08-02T04:47:31;11.65;;;6.53;;
59728;SDS011;45588;51.598;5.618;2022-08-02T04:49:56;13.00;;;5.40;;
59728;SDS011;45588;51.598;5.618;2022-08-02T04:52:22;9.13;;;5.28;;
59728;SDS011;45588;51.598;5.618;2022-08-02T04:54:47;12.70;;;6.97;;
59728;SDS011;45588;51.598;5.618;2022-08-02T04:57:13;12.52;;;7.07;;
59728;SDS011;45588;51.598;5.618;2022-08-02T04:59:56;11.07;;;6.55;;
59728;SDS011;45588;51.598;5.618;2022-08-02T05:02:22;17.38;;;7.30;;
59728;SDS011;45588;51.598;5.618;2022-08-02T05:04:47;11.10;;;6.43;;
59728;SDS011;45588;51.598;5.618;2022-08-02T05:07:12;10.57;;;6.90;;
59728;SDS011;45588;51.598;5.618;2022-08-02T05:09:38;10.77;;;5.55;;
59728;SDS011;45588;51.598;5.618;2022-08-02T05:12:04;11.50;;;6.63;;
59728;SDS011;45588;51.598;5.618;2022-08-02T05:14:30;11.80;;;6.88;;
59728;SDS011;45588;51.598;5.618;2022-08-02T05:16:56;12.18;;;8.75;;
59728;SDS011;45588;51.598;5.618;2022-08-02T05:19:21;11.55;;;7.90;;
59728;SDS011;45588;51.598;5.618;2022-08-02T05:21:46;11.90;;;7.68;;
59728;SDS011;45588;51.598;5.618;2022-08-02T05:24:11;13.38;;;7.63;;
59728;SDS011;45588;51.598;5.618;2022-08-02T05:26:37;12.02;;;6.78;;
59728;SDS011;45588;51.598;5.618;2022-08-02T05:29:02;11.77;;;8.35;;
59728;SDS011;45588;51.598;5.618;2022-08-02T05:31:28;10.05;;;7.45;;
59728;SDS011;45588;51.598;5.618;2022-08-02T05:33:54;13.73;;;8.90;;
59728;SDS011;45588;51.598;5.618;2022-08-02T05:36:19;9.50;;;7.82;;
59728;SDS011;45588;51.598;5.618;2022-08-02T05:38:44;21.30;;;9.80;;
59728;SDS011;45588;51.598;5.618;2022-08-02T05:41:10;13.98;;;9.45;;
59728;SDS011;45588;51.598;5.618;2022-08-02T05:43:35;15.93;;;8.13;;
59728;SDS011;45588;51.598;5.618;2022-08-02T05:46:00;15.70;;;8.95;;
59728;SDS011;45588;51.598;5.618;2022-08-02T05:48:26;15.57;;;9.75;;
59728;SDS011;45588;51.598;5.618;2022-08-02T05:50:55;13.70;;;9.50;;
59728;SDS011;45588;51.598;5.618;2022-08-02T05:53:37;17.20;;;8.88;;
59728;SDS011;45588;51.598;5.618;2022-08-02T05:59:19;16.58;;;10.43;;
59728;SDS011;45588;51.598;5.618;2022-08-02T06:01:46;12.45;;;9.73;;
59728;SDS011;45588;51.598;5.618;2022-08-02T06:04:15;10.85;;;9.02;;
59728;SDS011;45588;51.598;5.618;2022-08-02T06:06:48;13.57;;;10.00;;
59728;SDS011;45588;51.598;5.618;2022-08-02T06:09:19;10.57;;;8.00;;
59728;SDS011;45588;51.598;5.618;2022-08-02T06:11:45;15.50;;;10.98;;
59728;SDS011;45588;51.598;5.618;2022-08-02T06:14:14;15.60;;;11.85;;
59728;SDS011;45588;51.598;5.618;2022-08-02T06:16:39;14.27;;;10.75;;
59728;SDS011;45588;51.598;5.618;2022-08-02T06:19:06;16.42;;;11.27;;
59728;SDS011;45588;51.598;5.618;2022-08-02T06:21:32;18.25;;;10.82;;
59728;SDS011;45588;51.598;5.618;2022-08-02T06:23:59;13.55;;;10.63;;
59728;SDS011;45588;51.598;5.618;2022-08-02T06:26:26;15.02;;;11.60;;
59728;SDS011;45588;51.598;5.618;2022-08-02T06:28:52;21.15;;;12.52;;
59728;SDS011;45588;51.598;5.618;2022-08-02T06:31:19;18.35;;;12.75;;
59728;SDS011;45588;51.598;5.618;2022-08-02T06:33:45;15.35;;;12.82;;
59728;SDS011;45588;51.598;5.618;2022-08-02T06:39:03;21.50;;;14.57;;
59728;SDS011;45588;51.598;5.618;2022-08-02T06:41:49;17.42;;;13.55;;
59728;SDS011;45588;51.598;5.618;2022-08-02T06:44:18;17.92;;;15.57;;
59728;SDS011;45588;51.598;5.618;2022-08-02T06:46:43;17.63;;;14.57;;
59728;SDS011;45588;51.598;5.618;2022-08-02T06:49:09;16.98;;;15.18;;
59728;SDS011;45588;51.598;5.618;2022-08-02T06:51:34;17.35;;;15.48;;
59728;SDS011;45588;51.598;5.618;2022-08-02T06:53:59;20.02;;;15.70;;
59728;SDS011;45588;51.598;5.618;2022-08-02T06:56:24;19.35;;;16.02;;
59728;SDS011;45588;51.598;5.618;2022-08-02T06:58:51;22.45;;;15.55;;
59728;SDS011;45588;51.598;5.618;2022-08-02T07:01:17;16.73;;;14.95;;
59728;SDS011;45588;51.598;5.618;2022-08-02T07:03:43;17.35;;;15.25;;
59728;SDS011;45588;51.598;5.618;2022-08-02T07:06:09;15.10;;;13.60;;
59728;SDS011;45588;51.598;5.618;2022-08-02T07:08:34;16.48;;;13.48;;
59728;SDS011;45588;51.598;5.618;2022-08-02T07:11:02;17.33;;;13.55;;
59728;SDS011;45588;51.598;5.618;2022-08-02T07:13:31;15.00;;;13.50;;
59728;SDS011;45588;51.598;5.618;2022-08-02T07:15:57;16.52;;;13.65;;
59728;SDS011;45588;51.598;5.618;2022-08-02T07:18:23;12.77;;;11.20;;
59728;SDS011;45588;51.598;5.618;2022-08-02T07:20:48;15.18;;;12.45;;
59728;SDS011;45588;51.598;5.618;2022-08-02T07:23:14;14.70;;;13.07;;
59728;SDS011;45588;51.598;5.618;2022-08-02T07:25:39;14.75;;;12.07;;
59728;SDS011;45588;51.598;5.618;2022-08-02T07:28:05;16.92;;;12.65;;
59728;SDS011;45588;51.598;5.618;2022-08-02T07:30:32;12.57;;;10.55;;
59728;SDS011;45588;51.598;5.618;2022-08-02T07:32:58;13.55;;;11.10;;
59728;SDS011;45588;51.598;5.618;2022-08-02T07:35:24;13.85;;;11.63;;
59728;SDS011;45588;51.598;5.618;2022-08-02T07:37:50;14.73;;;11.68;;
59728;SDS011;45588;51.598;5.618;2022-08-02T07:40:15;14.82;;;12.70;;
59728;SDS011;45588;51.598;5.618;2022-08-02T07:42:41;13.27;;;11.27;;
59728;SDS011;45588;51.598;5.618;2022-08-02T07:45:07;14.43;;;11.13;;
59728;SDS011;45588;51.598;5.618;2022-08-02T07:47:36;13.77;;;11.05;;
59728;SDS011;45588;51.598;5.618;2022-08-02T07:50:02;14.70;;;10.68;;
59728;SDS011;45588;51.598;5.618;2022-08-02T07:52:28;14.20;;;10.05;;
59728;SDS011;45588;51.598;5.618;2022-08-02T07:54:54;12.13;;;9.20;;
59728;SDS011;45588;51.598;5.618;2022-08-02T07:57:19;12.70;;;8.48;;
59728;SDS011;45588;51.598;5.618;2022-08-02T07:59:45;11.38;;;9.32;;
59728;SDS011;45588;51.598;5.618;2022-08-02T08:02:11;10.35;;;8.90;;
59728;SDS011;45588;51.598;5.618;2022-08-02T08:04:38;10.55;;;8.43;;
59728;SDS011;45588;51.598;5.618;2022-08-02T08:07:04;11.07;;;8.65;;
59728;SDS011;45588;51.598;5.618;2022-08-02T08:09:30;12.18;;;8.23;;
59728;SDS011;45588;51.598;5.618;2022-08-02T08:11:55;14.93;;;8.60;;
59728;SDS011;45588;51.598;5.618;2022-08-02T08:14:20;9.98;;;7.32;;
59728;SDS011;45588;51.598;5.618;2022-08-02T08:16:46;11.13;;;8.05;;
59728;SDS011;45588;51.598;5.618;2022-08-02T08:19:11;12.43;;;7.70;;
59728;SDS011;45588;51.598;5.618;2022-08-02T08:21:36;7.80;;;6.40;;
59728;SDS011;45588;51.598;5.618;2022-08-02T08:24:02;7.07;;;6.38;;
59728;SDS011;45588;51.598;5.618;2022-08-02T08:26:28;7.85;;;6.05;;
59728;SDS011;45588;51.598;5.618;2022-08-02T08:28:53;9.75;;;6.57;;
59728;SDS011;45588;51.598;5.618;2022-08-02T08:31:19;6.40;;;5.53;;
59728;SDS011;45588;51.598;5.618;2022-08-02T08:33:44;6.00;;;4.75;;
59728;SDS011;45588;51.598;5.618;2022-08-02T08:36:10;8.13;;;5.22;;
59728;SDS011;45588;51.598;5.618;2022-08-02T08:38:35;9.40;;;5.57;;
59728;SDS011;45588;51.598;5.618;2022-08-02T08:41:00;8.20;;;5.90;;
59728;SDS011;45588;51.598;5.618;2022-08-02T08:43:26;9.30;;;6.82;;
59728;SDS011;45588;51.598;5.618;2022-08-02T08:45:51;11.15;;;7.43;;
59728;SDS011;45588;51.598;5.618;2022-08-02T08:48:17;9.55;;;6.45;;
59728;SDS011;45588;51.598;5.618;2022-08-02T08:50:49;8.50;;;6.40;;
59728;SDS011;45588;51.598;5.618;2022-08-02T08:53:18;9.55;;;6.43;;
59728;SDS011;45588;51.598;5.618;2022-08-02T08:55:45;11.98;;;5.90;;
59728;SDS011;45588;51.598;5.618;2022-08-02T08:58:12;7.00;;;4.80;;
59728;SDS011;45588;51.598;5.618;2022-08-02T09:00:38;4.95;;;3.85;;
59728;SDS011;45588;51.598;5.618;2022-08-02T09:03:05;7.90;;;4.30;;
59728;SDS011;45588;51.598;5.618;2022-08-02T09:05:36;5.00;;;3.95;;
59728;SDS011;45588;51.598;5.618;2022-08-02T09:08:03;8.40;;;4.40;;
59728;SDS011;45588;51.598;5.618;2022-08-02T09:10:42;5.68;;;3.83;;
59728;SDS011;45588;51.598;5.618;2022-08-02T09:15:34;7.27;;;4.53;;
59728;SDS011;45588;51.598;5.618;2022-08-02T09:18:02;6.13;;;4.18;;
59728;SDS011;45588;51.598;5.618;2022-08-02T09:20:29;6.18;;;3.90;;
59728;SDS011;45588;51.598;5.618;2022-08-02T09:23:04;5.55;;;3.55;;
59728;SDS011;45588;51.598;5.618;2022-08-02T09:25:30;7.47;;;3.60;;
59728;SDS011;45588;51.598;5.618;2022-08-02T09:27:56;4.32;;;3.22;;
59728;SDS011;45588;51.598;5.618;2022-08-02T09:30:25;4.68;;;3.30;;
59728;SDS011;45588;51.598;5.618;2022-08-02T09:32:51;4.55;;;3.60;;
59728;SDS011;45588;51.598;5.618;2022-08-02T09:35:29;4.50;;;3.20;;
59728;SDS011;45588;51.598;5.618;2022-08-02T09:38:06;5.60;;;3.60;;
59728;SDS011;45588;51.598;5.618;2022-08-02T09:40:36;5.53;;;4.18;;
59728;SDS011;45588;51.598;5.618;2022-08-02T09:43:03;4.97;;;3.13;;
59728;SDS011;45588;51.598;5.618;2022-08-02T09:45:29;6.38;;;3.53;;
59728;SDS011;45588;51.598;5.618;2022-08-02T09:47:56;4.93;;;3.15;;
59728;SDS011;45588;51.598;5.618;2022-08-02T09:50:21;5.57;;;3.60;;
59728;SDS011;45588;51.598;5.618;2022-08-02T09:52:47;4.13;;;2.90;;
59728;SDS011;45588;51.598;5.618;2022-08-02T09:55:12;5.93;;;3.05;;
59728;SDS011;45588;51.598;5.618;2022-08-02T09:57:38;3.97;;;3.50;;
59728;SDS011;45588;51.598;5.618;2022-08-02T10:00:07;5.75;;;3.35;;
59728;SDS011;45588;51.598;5.618;2022-08-02T10:02:35;5.68;;;2.83;;
59728;SDS011;45588;51.598;5.618;2022-08-02T10:05:00;3.60;;;2.55;;
59728;SDS011;45588;51.598;5.618;2022-08-02T10:07:25;5.50;;;2.25;;
59728;SDS011;45588;51.598;5.618;2022-08-02T10:09:51;6.28;;;2.30;;
59728;SDS011;45588;51.598;5.618;2022-08-02T10:12:16;3.60;;;1.92;;
59728;SDS011;45588;51.598;5.618;2022-08-02T10:14:41;2.67;;;1.98;;
59728;SDS011;45588;51.598;5.618;2022-08-02T10:17:07;5.75;;;1.90;;
59728;SDS011;45588;51.598;5.618;2022-08-02T10:19:33;2.58;;;1.55;;
59728;SDS011;45588;51.598;5.618;2022-08-02T10:22:09;6.05;;;2.00;;
59728;SDS011;45588;51.598;5.618;2022-08-02T10:24:37;2.35;;;1.77;;
59728;SDS011;45588;51.598;5.618;2022-08-02T10:27:03;4.13;;;1.88;;
59728;SDS011;45588;51.598;5.618;2022-08-02T10:29:37;5.78;;;1.88;;
59728;SDS011;45588;51.598;5.618;2022-08-02T10:32:10;5.18;;;2.20;;
59728;SDS011;45588;51.598;5.618;2022-08-02T10:34:42;5.63;;;2.00;;
59728;SDS011;45588;51.598;5.618;2022-08-02T10:37:12;3.65;;;1.80;;
59728;SDS011;45588;51.598;5.618;2022-08-02T10:39:40;4.72;;;1.80;;
59728;SDS011;45588;51.598;5.618;2022-08-02T10:42:07;2.63;;;1.63;;
59728;SDS011;45588;51.598;5.618;2022-08-02T10:44:33;2.28;;;1.65;;
59728;SDS011;45588;51.598;5.618;2022-08-02T10:49:53;7.27;;;1.90;;
59728;SDS011;45588;51.598;5.618;2022-08-02T10:52:21;3.92;;;1.73;;
59728;SDS011;45588;51.598;5.618;2022-08-02T10:57:23;5.20;;;2.20;;
59728;SDS011;45588;51.598;5.618;2022-08-02T10:59:51;3.05;;;1.92;;
59728;SDS011;45588;51.598;5.618;2022-08-02T11:02:37;2.63;;;1.73;;
59728;SDS011;45588;51.598;5.618;2022-08-02T11:05:11;2.83;;;1.70;;
59728;SDS011;45588;51.598;5.618;2022-08-02T11:07:40;2.38;;;1.48;;
59728;SDS011;45588;51.598;5.618;2022-08-02T11:13:07;3.50;;;1.92;;
59728;SDS011;45588;51.598;5.618;2022-08-02T11:15:52;2.00;;;1.70;;
59728;SDS011;45588;51.598;5.618;2022-08-02T11:18:21;2.80;;;1.70;;
59728;SDS011;45588;51.598;5.618;2022-08-02T11:21:18;3.60;;;1.98;;
59728;SDS011;45588;51.598;5.618;2022-08-02T11:23:50;3.80;;;1.65;;
59728;SDS011;45588;51.598;5.618;2022-08-02T11:28:57;4.95;;;1.85;;
59728;SDS011;45588;51.598;5.618;2022-08-02T11:31:23;2.10;;;1.50;;
59728;SDS011;45588;51.598;5.618;2022-08-02T11:33:49;1.60;;;1.38;;
59728;SDS011;45588;51.598;5.618;2022-08-02T11:36:15;3.10;;;1.85;;
59728;SDS011;45588;51.598;5.618;2022-08-02T11:38:41;2.92;;;1.52;;
59728;SDS011;45588;51.598;5.618;2022-08-02T11:41:07;4.22;;;1.50;;
59728;SDS011;45588;51.598;5.618;2022-08-02T11:43:33;8.65;;;1.52;;
59728;SDS011;45588;51.598;5.618;2022-08-02T11:46:03;2.75;;;1.63;;
59728;SDS011;45588;51.598;5.618;2022-08-02T11:48:32;2.33;;;1.60;;
59728;SDS011;45588;51.598;5.618;2022-08-02T11:51:04;4.07;;;1.77;;
59728;SDS011;45588;51.598;5.618;2022-08-02T11:56:06;4.32;;;1.98;;
59728;SDS011;45588;51.598;5.618;2022-08-02T11:58:31;4.93;;;2.00;;
59728;SDS011;45588;51.598;5.618;2022-08-02T12:00:57;4.55;;;1.55;;
59728;SDS011;45588;51.598;5.618;2022-08-02T12:03:22;1.77;;;1.50;;
59728;SDS011;45588;51.598;5.618;2022-08-02T12:05:48;2.83;;;1.48;;
59728;SDS011;45588;51.598;5.618;2022-08-02T12:08:14;1.75;;;1.58;;
59728;SDS011;45588;51.598;5.618;2022-08-02T12:10:45;4.28;;;1.70;;
59728;SDS011;45588;51.598;5.618;2022-08-02T12:13:12;2.20;;;1.30;;
59728;SDS011;45588;51.598;5.618;2022-08-02T12:15:41;2.47;;;1.65;;
59728;SDS011;45588;51.598;5.618;2022-08-02T12:18:12;2.85;;;1.48;;
59728;SDS011;45588;51.598;5.618;2022-08-02T12:20:57;3.65;;;1.58;;
59728;SDS011;45588;51.598;5.618;2022-08-02T12:23:23;2.67;;;1.48;;
59728;SDS011;45588;51.598;5.618;2022-08-02T12:26:02;3.90;;;1.35;;
59728;SDS011;45588;51.598;5.618;2022-08-02T12:28:33;5.13;;;1.40;;
59728;SDS011;45588;51.598;5.618;2022-08-02T12:31:03;2.95;;;1.30;;
59728;SDS011;45588;51.598;5.618;2022-08-02T12:33:43;5.05;;;1.60;;
59728;SDS011;45588;51.598;5.618;2022-08-02T12:36:14;1.77;;;1.08;;
59728;SDS011;45588;51.598;5.618;2022-08-02T12:38:50;3.92;;;1.58;;
59728;SDS011;45588;51.598;5.618;2022-08-02T12:41:16;1.73;;;1.23;;
59728;SDS011;45588;51.598;5.618;2022-08-02T12:43:41;5.20;;;1.40;;
59728;SDS011;45588;51.598;5.618;2022-08-02T12:46:13;2.15;;;1.52;;
59728;SDS011;45588;51.598;5.618;2022-08-02T12:48:41;11.80;;;1.75;;
59728;SDS011;45588;51.598;5.618;2022-08-02T12:51:20;2.95;;;1.33;;
59728;SDS011;45588;51.598;5.618;2022-08-02T12:56:25;2.95;;;1.80;;
59728;SDS011;45588;51.598;5.618;2022-08-02T12:59:01;3.80;;;1.70;;
59728;SDS011;45588;51.598;5.618;2022-08-02T13:01:27;5.47;;;1.70;;
59728;SDS011;45588;51.598;5.618;2022-08-02T13:03:53;2.35;;;1.38;;
59728;SDS011;45588;51.598;5.618;2022-08-02T13:06:19;2.30;;;1.70;;
59728;SDS011;45588;51.598;5.618;2022-08-02T13:08:45;1.67;;;1.58;;
59728;SDS011;45588;51.598;5.618;2022-08-02T13:11:11;2.25;;;1.55;;
59728;SDS011;45588;51.598;5.618;2022-08-02T13:13:36;2.53;;;1.40;;
59728;SDS011;45588;51.598;5.618;2022-08-02T13:16:02;1.67;;;1.50;;
59728;SDS011;45588;51.598;5.618;2022-08-02T13:18:27;4.93;;;1.83;;
59728;SDS011;45588;51.598;5.618;2022-08-02T13:20:52;3.92;;;1.40;;
59728;SDS011;45588;51.598;5.618;2022-08-02T13:23:18;2.47;;;1.52;;
59728;SDS011;45588;51.598;5.618;2022-08-02T13:25:43;2.28;;;1.65;;
59728;SDS011;45588;51.598;5.618;2022-08-02T13:28:09;4.28;;;1.50;;
59728;SDS011;45588;51.598;5.618;2022-08-02T13:30:35;3.35;;;1.48;;
59728;SDS011;45588;51.598;5.618;2022-08-02T13:33:00;4.88;;;1.42;;
59728;SDS011;45588;51.598;5.618;2022-08-02T13:35:26;4.35;;;1.60;;
59728;SDS011;45588;51.598;5.618;2022-08-02T13:37:51;1.67;;;1.50;;
59728;SDS011;45588;51.598;5.618;2022-08-02T13:40:17;2.55;;;1.60;;
59728;SDS011;45588;51.598;5.618;2022-08-02T13:42:42;3.63;;;1.55;;
59728;SDS011;45588;51.598;5.618;2022-08-02T13:45:08;2.80;;;1.50;;
59728;SDS011;45588;51.598;5.618;2022-08-02T13:47:35;4.25;;;1.90;;
59728;SDS011;45588;51.598;5.618;2022-08-02T13:50:03;3.13;;;1.67;;
59728;SDS011;45588;51.598;5.618;2022-08-02T13:52:28;3.03;;;1.70;;
59728;SDS011;45588;51.598;5.618;2022-08-02T13:54:53;2.05;;;1.58;;
59728;SDS011;45588;51.598;5.618;2022-08-02T13:57:19;4.15;;;1.50;;
59728;SDS011;45588;51.598;5.618;2022-08-02T13:59:44;2.17;;;1.67;;
59728;SDS011;45588;51.598;5.618;2022-08-02T14:02:10;2.80;;;1.52;;
59728;SDS011;45588;51.598;5.618;2022-08-02T14:04:35;2.05;;;1.52;;
59728;SDS011;45588;51.598;5.618;2022-08-02T14:07:02;2.30;;;1.52;;
59728;SDS011;45588;51.598;5.618;2022-08-02T14:09:28;4.68;;;1.80;;
59728;SDS011;45588;51.598;5.618;2022-08-02T14:11:56;3.22;;;1.65;;
59728;SDS011;45588;51.598;5.618;2022-08-02T14:14:21;3.05;;;1.38;;
59728;SDS011;45588;51.598;5.618;2022-08-02T14:16:47;4.88;;;1.50;;
59728;SDS011;45588;51.598;5.618;2022-08-02T14:19:12;2.35;;;1.35;;
59728;SDS011;45588;51.598;5.618;2022-08-02T14:21:38;2.90;;;1.70;;
59728;SDS011;45588;51.598;5.618;2022-08-02T14:24:03;4.43;;;1.90;;
59728;SDS011;45588;51.598;5.618;2022-08-02T14:26:29;2.70;;;1.50;;
59728;SDS011;45588;51.598;5.618;2022-08-02T14:28:54;2.33;;;1.65;;
59728;SDS011;45588;51.598;5.618;2022-08-02T14:31:20;2.70;;;1.50;;
59728;SDS011;45588;51.598;5.618;2022-08-02T14:33:45;2.92;;;1.40;;
59728;SDS011;45588;51.598;5.618;2022-08-02T14:36:11;5.03;;;1.90;;
59728;SDS011;45588;51.598;5.618;2022-08-02T14:38:36;4.22;;;1.65;;
59728;SDS011;45588;51.598;5.618;2022-08-02T14:41:02;2.53;;;1.40;;
59728;SDS011;45588;51.598;5.618;2022-08-02T14:43:27;3.92;;;1.50;;
59728;SDS011;45588;51.598;5.618;2022-08-02T14:46:11;4.57;;;1.70;;
59728;SDS011;45588;51.598;5.618;2022-08-02T14:48:36;4.75;;;1.65;;
59728;SDS011;45588;51.598;5.618;2022-08-02T14:51:01;6.65;;;2.08;;
59728;SDS011;45588;51.598;5.618;2022-08-02T14:53:27;4.40;;;1.80;;
59728;SDS011;45588;51.598;5.618;2022-08-02T14:55:52;4.57;;;2.03;;
59728;SDS011;45588;51.598;5.618;2022-08-02T14:58:17;9.73;;;1.85;;
59728;SDS011;45588;51.598;5.618;2022-08-02T15:00:43;2.65;;;1.40;;
59728;SDS011;45588;51.598;5.618;2022-08-02T15:03:09;4.18;;;1.70;;
59728;SDS011;45588;51.598;5.618;2022-08-02T15:05:35;6.05;;;1.70;;
59728;SDS011;45588;51.598;5.618;2022-08-02T15:08:00;4.60;;;1.95;;
59728;SDS011;45588;51.598;5.618;2022-08-02T15:10:26;4.22;;;2.05;;
59728;SDS011;45588;51.598;5.618;2022-08-02T15:12:51;4.43;;;1.67;;
59728;SDS011;45588;51.598;5.618;2022-08-02T15:15:16;6.43;;;2.42;;